Moosup, Connecticut
Current Conditions -  °F | °C
As of 9:52 AM on Saturday 01 Nov 2014 (Local Time) from KIJD Reporting Station
Overcast Overcast  
Wind Chill: 42°   Ceiling: 2000
Heat Index: 47°   Visibility: 10mi
Dew Point: 36°   Wind: 10mph
Humidity: 66%   Direction: 10°N
Pressure: 29.85"   Gusts: NA
Location:  41.72°N, 71.87°W
Report Text: KIJD 011352Z AUTO 01009KT 10SM OVC020 08/02 A2985 RMK AO2 SLP110 T00830022
Loading
Personal Weather Stations






























Interactive Weather Map
Tropical Storm Tracking
New forecast layout! Learn more

10-Day Weather Forecast

Advertisements
Track Severe Weather on mobile